Time;durP1;ratioP1;P1;durP2;ratioP2;P2;SDS_P1;SDS_P2;PMS_P1;PMS_P2;Temp;Humidity;BMP_temperature;BMP_pressure;BME280_temperature;BME280_humidity;BME280_pressure;Samples;Min_cycle;Max_cycle;Signal;HPM_P1;HPM_P2
2022/03/20 00:01:52;;;;;;;7.75;3.83;;;;;;;;;;5071868;28;20685;-58
2022/03/20 00:04:18;;;;;;;8.98;4.10;;;;;;;;;;5072064;28;20272;-58
2022/03/20 00:06:43;;;;;;;10.37;4.40;;;;;;;;;;5072549;28;20570;-58
2022/03/20 00:09:08;;;;;;;9.32;4.30;;;;;;;;;;5071372;28;20211;-58
2022/03/20 00:11:34;;;;;;;10.50;4.70;;;;;;;;;;5072212;28;20214;-58
2022/03/20 00:13:59;;;;;;;9.67;4.70;;;;;;;;;;5072238;28;20225;-58
2022/03/20 00:16:29;;;;;;;9.13;5.00;;;;;;;;;;5071103;28;20225;-58
2022/03/20 00:18:54;;;;;;;10.45;4.88;;;;;;;;;;5072089;28;20207;-58
2022/03/20 00:21:19;;;;;;;11.27;5.20;;;;;;;;;;5071687;28;20342;-58
2022/03/20 00:23:45;;;;;;;9.55;5.22;;;;;;;;;;5071438;28;20670;-58
2022/03/20 00:26:10;;;;;;;10.93;5.57;;;;;;;;;;5071845;28;20210;-58
2022/03/20 00:28:35;;;;;;;13.17;6.03;;;;;;;;;;5072327;28;20206;-57
2022/03/20 00:31:01;;;;;;;12.77;6.50;;;;;;;;;;5052952;28;20581;-57
2022/03/20 00:33:26;;;;;;;9.93;5.90;;;;;;;;;;5071856;28;20279;-58
2022/03/20 00:35:51;;;;;;;15.53;6.30;;;;;;;;;;5072262;28;20211;-58
2022/03/20 00:38:16;;;;;;;12.83;6.53;;;;;;;;;;5070660;28;20207;-58
2022/03/20 00:40:43;;;;;;;11.93;7.13;;;;;;;;;;5072340;28;20215;-58
2022/03/20 00:43:09;;;;;;;15.70;7.13;;;;;;;;;;5071163;28;20213;-58
2022/03/20 00:45:34;;;;;;;13.98;7.95;;;;;;;;;;5058936;28;20219;-58
2022/03/20 00:47:59;;;;;;;12.15;7.82;;;;;;;;;;5051822;28;20588;-58
2022/03/20 00:50:25;;;;;;;15.47;9.10;;;;;;;;;;5051088;28;20710;-58
2022/03/20 00:52:50;;;;;;;17.35;9.73;;;;;;;;;;5054071;28;20210;-58
2022/03/20 00:55:15;;;;;;;13.57;9.18;;;;;;;;;;5070756;28;20688;-58
2022/03/20 00:57:41;;;;;;;15.23;9.65;;;;;;;;;;5071059;28;20553;-58
2022/03/20 01:00:06;;;;;;;15.60;9.93;;;;;;;;;;5057679;28;20207;-58
2022/03/20 01:02:39;;;;;;;14.82;9.48;;;;;;;;;;5051648;28;20298;-58
2022/03/20 01:05:04;;;;;;;16.80;9.27;;;;;;;;;;5050036;28;20630;-59
2022/03/20 01:07:30;;;;;;;13.00;8.27;;;;;;;;;;5051168;28;20294;-58
2022/03/20 01:09:55;;;;;;;15.40;8.95;;;;;;;;;;5051321;28;20547;-58
2022/03/20 01:12:21;;;;;;;11.47;8.13;;;;;;;;;;5049826;28;20284;-58
2022/03/20 01:14:46;;;;;;;16.73;8.27;;;;;;;;;;5051198;28;20242;-58
2022/03/20 01:17:11;;;;;;;15.07;8.80;;;;;;;;;;5050438;28;20257;-58
2022/03/20 01:19:37;;;;;;;16.90;9.10;;;;;;;;;;5049857;28;20234;-58
2022/03/20 01:22:02;;;;;;;15.93;8.73;;;;;;;;;;5050474;28;20265;-58
2022/03/20 01:24:29;;;;;;;11.73;7.60;;;;;;;;;;5050396;28;20785;-58
2022/03/20 01:26:55;;;;;;;14.00;8.00;;;;;;;;;;5049988;28;20520;-58
2022/03/20 01:29:20;;;;;;;14.13;8.27;;;;;;;;;;5050514;28;20670;-58
2022/03/20 01:31:45;;;;;;;15.88;6.95;;;;;;;;;;5050179;28;20666;-58
2022/03/20 01:34:10;;;;;;;12.13;6.93;;;;;;;;;;5026287;28;20227;-58
2022/03/20 01:36:36;;;;;;;11.53;6.73;;;;;;;;;;5049849;28;20297;-58
2022/03/20 01:39:02;;;;;;;13.47;6.80;;;;;;;;;;5051875;28;20493;-58
2022/03/20 01:41:27;;;;;;;13.07;6.45;;;;;;;;;;5040218;28;20273;-58
2022/03/20 01:43:53;;;;;;;12.57;6.53;;;;;;;;;;5053350;28;20270;-58
2022/03/20 01:46:18;;;;;;;11.32;6.55;;;;;;;;;;5042273;28;20219;-58
2022/03/20 01:48:43;;;;;;;11.10;6.80;;;;;;;;;;5040098;28;20305;-58
2022/03/20 01:51:09;;;;;;;11.53;6.80;;;;;;;;;;5040991;28;20597;-58
2022/03/20 01:53:34;;;;;;;14.10;6.40;;;;;;;;;;5038929;28;20246;-58
2022/03/20 01:56:00;;;;;;;12.50;6.63;;;;;;;;;;5032841;28;20227;-58
2022/03/20 01:58:25;;;;;;;14.00;6.33;;;;;;;;;;5053726;28;20260;-58
2022/03/20 02:00:50;;;;;;;11.27;5.83;;;;;;;;;;5041230;28;20686;-58
2022/03/20 02:03:16;;;;;;;13.33;6.40;;;;;;;;;;5039615;28;20215;-58
2022/03/20 02:05:41;;;;;;;13.23;6.23;;;;;;;;;;5040739;28;20239;-58
2022/03/20 02:08:07;;;;;;;12.57;6.70;;;;;;;;;;5040828;28;20233;-58
2022/03/20 02:10:35;;;;;;;12.93;6.30;;;;;;;;;;5060607;28;20226;-58
2022/03/20 02:13:00;;;;;;;12.60;6.50;;;;;;;;;;5060056;28;20222;-58
2022/03/20 02:15:26;;;;;;;10.40;5.93;;;;;;;;;;5052917;28;20525;-58
2022/03/20 02:17:51;;;;;;;13.13;6.27;;;;;;;;;;5052899;28;20325;-58
2022/03/20 02:20:20;;;;;;;12.00;6.80;;;;;;;;;;5051863;28;20222;-58
2022/03/20 02:22:45;;;;;;;12.93;6.80;;;;;;;;;;5057287;28;20221;-58
2022/03/20 02:25:14;;;;;;;12.83;6.27;;;;;;;;;;5059390;28;20230;-58
2022/03/20 02:27:39;;;;;;;9.13;6.15;;;;;;;;;;5042437;28;20211;-58
2022/03/20 02:30:12;;;;;;;12.73;6.23;;;;;;;;;;5058671;28;20264;-58
2022/03/20 02:32:37;;;;;;;13.07;6.97;;;;;;;;;;5059878;28;20281;-58
2022/03/20 02:35:04;;;;;;;11.23;6.17;;;;;;;;;;5059369;28;20743;-58
2022/03/20 02:37:30;;;;;;;10.80;5.87;;;;;;;;;;5055323;28;20210;-58
2022/03/20 02:39:56;;;;;;;11.03;6.23;;;;;;;;;;5052237;28;20218;-58
2022/03/20 02:42:22;;;;;;;14.27;6.68;;;;;;;;;;5049270;28;20613;-58
2022/03/20 02:44:49;;;;;;;13.57;6.70;;;;;;;;;;5049482;28;20861;-58
2022/03/20 02:47:20;;;;;;;11.23;6.32;;;;;;;;;;5038958;28;20632;-58
2022/03/20 02:49:46;;;;;;;13.63;7.43;;;;;;;;;;5058962;28;20222;-58
2022/03/20 02:52:11;;;;;;;13.13;7.03;;;;;;;;;;5058599;28;20306;-58
2022/03/20 02:54:37;;;;;;;11.63;7.10;;;;;;;;;;5039975;28;20309;-58
2022/03/20 02:57:08;;;;;;;13.47;7.37;;;;;;;;;;5039364;28;20721;-58
2022/03/20 02:59:34;;;;;;;14.63;7.38;;;;;;;;;;5048776;28;20557;-58
2022/03/20 03:02:00;;;;;;;13.53;7.80;;;;;;;;;;5032660;28;20261;-58
2022/03/20 03:04:25;;;;;;;16.50;8.07;;;;;;;;;;5031171;28;20475;-58
2022/03/20 03:06:50;;;;;;;14.33;8.10;;;;;;;;;;5034736;28;20663;-58
2022/03/20 03:11:59;;;;;;;14.97;8.00;;;;;;;;;;5039006;28;20770;-58
2022/03/20 03:17:09;;;;;;;13.30;8.37;;;;;;;;;;5059108;28;20232;-58
2022/03/20 03:19:34;;;;;;;14.10;8.73;;;;;;;;;;5058616;28;20511;-58
2022/03/20 03:22:01;;;;;;;14.17;8.30;;;;;;;;;;5057570;28;20234;-58
2022/03/20 03:24:26;;;;;;;15.83;8.70;;;;;;;;;;5051586;28;20222;-58
2022/03/20 03:26:51;;;;;;;13.67;8.87;;;;;;;;;;5051294;28;20236;-58
2022/03/20 03:29:17;;;;;;;14.27;9.57;;;;;;;;;;5052821;28;20806;-58
2022/03/20 03:31:42;;;;;;;16.80;9.27;;;;;;;;;;5059475;28;20589;-58
2022/03/20 03:36:51;;;;;;;14.20;8.87;;;;;;;;;;5059428;28;20225;-58
2022/03/20 03:39:19;;;;;;;15.23;9.50;;;;;;;;;;5058489;28;20216;-58
2022/03/20 03:41:44;;;;;;;16.23;9.67;;;;;;;;;;5059022;28;20317;-58
2022/03/20 03:44:09;;;;;;;14.93;9.82;;;;;;;;;;5041925;28;20783;-58
2022/03/20 03:46:35;;;;;;;16.80;9.73;;;;;;;;;;5031628;28;20686;-58
2022/03/20 03:49:00;;;;;;;20.10;10.13;;;;;;;;;;5031804;28;20698;-58
2022/03/20 03:51:26;;;;;;;15.00;10.07;;;;;;;;;;5032041;28;20211;-58
2022/03/20 03:53:51;;;;;;;17.83;10.30;;;;;;;;;;5027340;28;20258;-58
2022/03/20 03:56:19;;;;;;;17.77;10.43;;;;;;;;;;5042391;28;20646;-58
2022/03/20 03:58:44;;;;;;;16.30;10.33;;;;;;;;;;5060445;28;20218;-58
2022/03/20 04:01:09;;;;;;;20.27;10.53;;;;;;;;;;5042095;28;20268;-58
2022/03/20 04:03:35;;;;;;;17.77;10.50;;;;;;;;;;5042586;28;20211;-58
2022/03/20 04:06:04;;;;;;;17.83;10.57;;;;;;;;;;5061804;28;20247;-58
2022/03/20 04:08:29;;;;;;;21.03;11.10;;;;;;;;;;5051388;28;20301;-58
2022/03/20 04:10:54;;;;;;;18.83;10.70;;;;;;;;;;5053885;28;21431;-58
2022/03/20 04:13:20;;;;;;;18.13;10.90;;;;;;;;;;5054145;28;20303;-58
2022/03/20 04:15:45;;;;;;;17.07;10.13;;;;;;;;;;5058766;28;20974;-58
2022/03/20 04:18:12;;;;;;;16.63;9.90;;;;;;;;;;5062106;28;20221;-58
2022/03/20 04:20:37;;;;;;;17.90;10.97;;;;;;;;;;5062042;28;20374;-58
2022/03/20 04:25:47;;;;;;;18.60;11.10;;;;;;;;;;5061935;28;20300;-58
2022/03/20 04:28:12;;;;;;;17.93;10.40;;;;;;;;;;5061898;28;20223;-58
2022/03/20 04:30:37;;;;;;;18.20;11.60;;;;;;;;;;5057224;28;20685;-58
2022/03/20 04:33:03;;;;;;;18.90;11.30;;;;;;;;;;5053933;28;20230;-58
2022/03/20 04:35:28;;;;;;;17.63;10.98;;;;;;;;;;5053958;28;20693;-58
2022/03/20 04:37:54;;;;;;;17.50;10.63;;;;;;;;;;5057752;28;20218;-58
2022/03/20 04:40:20;;;;;;;19.30;11.20;;;;;;;;;;5061698;28;20245;-58
2022/03/20 04:42:45;;;;;;;19.90;11.70;;;;;;;;;;5055012;28;20268;-58
2022/03/20 04:45:11;;;;;;;21.87;11.23;;;;;;;;;;5041646;28;20230;-58
2022/03/20 04:58:32;;;;;;;20.07;11.70;;;;;;;;;;5052874;28;20224;-58
2022/03/20 05:00:57;;;;;;;18.17;11.63;;;;;;;;;;5039217;28;20322;-58
2022/03/20 05:03:23;;;;;;;20.90;11.80;;;;;;;;;;5040950;28;20628;-58
2022/03/20 05:05:49;;;;;;;17.03;11.40;;;;;;;;;;5039693;28;20260;-58
2022/03/20 05:08:14;;;;;;;21.53;12.20;;;;;;;;;;5041371;28;20219;-58
2022/03/20 05:13:23;;;;;;;18.93;11.57;;;;;;;;;;5061216;28;20574;-58
2022/03/20 05:15:49;;;;;;;20.50;12.13;;;;;;;;;;5057296;28;20693;-58
2022/03/20 05:18:14;;;;;;;19.93;12.07;;;;;;;;;;5052159;28;20210;-58
2022/03/20 05:20:40;;;;;;;18.60;11.53;;;;;;;;;;5054211;28;20225;-58
2022/03/20 05:23:05;;;;;;;19.53;12.20;;;;;;;;;;5057176;28;20217;-58
2022/03/20 05:25:31;;;;;;;17.37;11.57;;;;;;;;;;5059959;28;20226;-58
2022/03/20 05:27:56;;;;;;;20.33;12.33;;;;;;;;;;5061019;28;20360;-58
2022/03/20 05:30:22;;;;;;;18.53;11.93;;;;;;;;;;5060544;28;20681;-58
2022/03/20 05:32:48;;;;;;;19.80;12.37;;;;;;;;;;5060385;28;20206;-58
2022/03/20 05:35:13;;;;;;;22.53;12.17;;;;;;;;;;5042995;28;20206;-58
2022/03/20 05:37:38;;;;;;;19.45;12.15;;;;;;;;;;5041390;28;20707;-58
2022/03/20 05:40:04;;;;;;;20.90;12.10;;;;;;;;;;5052069;28;20225;-58
2022/03/20 05:42:29;;;;;;;18.07;11.83;;;;;;;;;;5049615;28;20792;-58
2022/03/20 05:44:54;;;;;;;19.92;12.02;;;;;;;;;;5029686;28;20215;-58
2022/03/20 05:47:20;;;;;;;20.27;12.60;;;;;;;;;;5040079;28;20631;-58
2022/03/20 05:49:46;;;;;;;22.87;12.97;;;;;;;;;;5022727;28;20215;-58
2022/03/20 05:52:13;;;;;;;18.70;11.77;;;;;;;;;;5040704;28;20649;-58
2022/03/20 05:54:38;;;;;;;18.90;12.63;;;;;;;;;;5039954;28;20349;-58
2022/03/20 05:59:48;;;;;;;19.60;13.27;;;;;;;;;;5040765;28;20288;-58
2022/03/20 06:02:13;;;;;;;20.17;12.33;;;;;;;;;;5032324;28;21254;-58
2022/03/20 06:04:38;;;;;;;18.57;12.57;;;;;;;;;;5033139;28;20764;-58
2022/03/20 06:07:04;;;;;;;19.77;12.60;;;;;;;;;;5032648;28;20223;-58
2022/03/20 06:09:30;;;;;;;22.30;12.50;;;;;;;;;;5039913;28;20219;-58
2022/03/20 06:11:56;;;;;;;20.13;12.80;;;;;;;;;;5040641;28;20678;-58
2022/03/20 06:14:21;;;;;;;20.60;13.47;;;;;;;;;;5040948;28;20748;-58
2022/03/20 06:16:48;;;;;;;20.33;12.68;;;;;;;;;;5059397;28;20217;-58
2022/03/20 06:19:14;;;;;;;21.97;12.47;;;;;;;;;;5059931;28;20214;-58
2022/03/20 06:21:39;;;;;;;21.58;12.95;;;;;;;;;;5040107;28;20345;-58
2022/03/20 06:24:04;;;;;;;21.45;13.27;;;;;;;;;;5033225;28;20276;-58
2022/03/20 06:26:30;;;;;;;18.93;12.50;;;;;;;;;;5032553;28;20721;-58
2022/03/20 06:28:55;;;;;;;19.80;12.37;;;;;;;;;;5032108;28;20312;-58
2022/03/20 06:31:20;;;;;;;20.57;12.50;;;;;;;;;;5037211;28;20214;-58
2022/03/20 06:33:46;;;;;;;20.15;12.98;;;;;;;;;;5040146;28;20219;-58
2022/03/20 06:36:11;;;;;;;20.23;12.10;;;;;;;;;;5038937;28;20199;-58
2022/03/20 06:38:37;;;;;;;21.80;13.77;;;;;;;;;;5041252;28;20210;-58
2022/03/20 06:41:03;;;;;;;20.33;12.30;;;;;;;;;;5059146;28;20685;-58
2022/03/20 06:43:29;;;;;;;19.97;13.80;;;;;;;;;;5047291;28;20211;-58
2022/03/20 06:45:55;;;;;;;19.77;12.55;;;;;;;;;;5036802;28;20652;-60
2022/03/20 06:48:21;;;;;;;20.77;14.93;;;;;;;;;;5031146;28;20956;-61
2022/03/20 06:50:46;;;;;;;18.58;13.30;;;;;;;;;;5032486;28;20460;-64
2022/03/20 06:53:11;;;;;;;20.73;12.98;;;;;;;;;;5046661;28;20265;-62
2022/03/20 06:55:37;;;;;;;19.42;13.15;;;;;;;;;;5039336;28;20263;-61
2022/03/20 06:58:02;;;;;;;19.67;13.18;;;;;;;;;;5039617;28;20260;-61
2022/03/20 07:00:29;;;;;;;19.60;13.30;;;;;;;;;;5041132;28;20227;-63
2022/03/20 07:02:55;;;;;;;18.23;12.55;;;;;;;;;;5040155;28;20222;-64
2022/03/20 07:05:20;;;;;;;19.60;13.17;;;;;;;;;;5021642;28;20239;-61
2022/03/20 07:07:45;;;;;;;21.13;13.45;;;;;;;;;;5040645;28;20218;-62
2022/03/20 07:10:13;;;;;;;19.17;13.35;;;;;;;;;;5033392;28;20249;-64
2022/03/20 07:12:38;;;;;;;20.67;13.57;;;;;;;;;;5033301;28;20998;-63
2022/03/20 07:15:03;;;;;;;20.25;13.00;;;;;;;;;;5033674;28;20252;-63
2022/03/20 07:17:29;;;;;;;21.23;13.55;;;;;;;;;;5039778;28;20211;-64
2022/03/20 07:19:54;;;;;;;24.33;13.80;;;;;;;;;;5040484;28;20211;-64
2022/03/20 07:22:19;;;;;;;24.08;14.00;;;;;;;;;;5043092;28;20565;-63
2022/03/20 07:24:45;;;;;;;18.80;13.60;;;;;;;;;;5039929;28;20597;-62
2022/03/20 07:29:54;;;;;;;20.63;13.55;;;;;;;;;;5042171;28;20218;-64
2022/03/20 07:32:20;;;;;;;21.35;14.15;;;;;;;;;;5036570;28;20211;-63
2022/03/20 07:34:45;;;;;;;20.83;14.38;;;;;;;;;;5035732;28;20215;-63
2022/03/20 07:37:11;;;;;;;22.25;14.55;;;;;;;;;;5036543;28;20356;-63
2022/03/20 07:39:36;;;;;;;22.58;14.23;;;;;;;;;;5041101;28;20766;-64
2022/03/20 07:42:01;;;;;;;20.00;13.75;;;;;;;;;;5042705;28;20235;-62
2022/03/20 07:44:27;;;;;;;22.35;14.35;;;;;;;;;;5043359;28;20235;-60
2022/03/20 07:46:54;;;;;;;22.10;14.15;;;;;;;;;;5042578;28;20215;-61
2022/03/20 07:49:20;;;;;;;21.55;14.07;;;;;;;;;;5043175;28;20215;-61
2022/03/20 07:51:46;;;;;;;20.35;14.18;;;;;;;;;;5063116;28;20222;-59
2022/03/20 07:54:12;;;;;;;21.55;14.18;;;;;;;;;;5042530;28;20779;-60
2022/03/20 07:56:37;;;;;;;25.55;15.95;;;;;;;;;;5035377;28;20241;-58
2022/03/20 07:59:05;;;;;;;21.08;13.60;;;;;;;;;;5035416;28;20593;-59
2022/03/20 08:01:31;;;;;;;23.23;14.88;;;;;;;;;;5043724;28;20306;-60
2022/03/20 08:03:57;;;;;;;23.10;14.25;;;;;;;;;;5052728;28;20310;-57
2022/03/20 08:06:22;;;;;;;23.45;13.77;;;;;;;;;;5052981;28;20290;-58
2022/03/20 08:08:47;;;;;;;24.25;14.15;;;;;;;;;;5061053;28;20294;-57
2022/03/20 08:11:13;;;;;;;24.58;15.45;;;;;;;;;;5062611;28;20253;-57
2022/03/20 08:13:38;;;;;;;22.02;14.52;;;;;;;;;;5059786;28;20294;-57
2022/03/20 08:16:04;;;;;;;21.42;14.32;;;;;;;;;;5062175;28;20199;-60
2022/03/20 08:18:30;;;;;;;22.08;14.75;;;;;;;;;;5061829;28;20260;-60
2022/03/20 08:20:55;;;;;;;22.58;15.85;;;;;;;;;;5059994;28;20245;-61
2022/03/20 08:23:20;;;;;;;24.00;16.98;;;;;;;;;;5062175;28;20297;-61
2022/03/20 08:25:47;;;;;;;23.58;15.45;;;;;;;;;;5063758;28;20233;-57
2022/03/20 08:28:12;;;;;;;25.58;15.43;;;;;;;;;;5070474;28;20354;-58
2022/03/20 08:30:40;;;;;;;25.48;15.77;;;;;;;;;;5069529;28;20740;-58
2022/03/20 08:33:05;;;;;;;22.55;14.82;;;;;;;;;;5061530;28;20717;-58
2022/03/20 08:35:30;;;;;;;22.13;14.43;;;;;;;;;;5059595;28;20199;-58
2022/03/20 08:37:56;;;;;;;24.17;14.98;;;;;;;;;;5061343;28;20242;-59
2022/03/20 08:40:21;;;;;;;23.92;15.43;;;;;;;;;;5060790;28;20357;-58
2022/03/20 08:42:47;;;;;;;23.38;16.25;;;;;;;;;;5061574;28;20686;-58
2022/03/20 08:45:13;;;;;;;22.40;15.60;;;;;;;;;;5044631;28;20229;-58
2022/03/20 08:47:39;;;;;;;25.48;15.55;;;;;;;;;;5060794;28;20206;-58
2022/03/20 08:50:04;;;;;;;22.60;16.02;;;;;;;;;;5060745;28;20211;-58
2022/03/20 08:52:30;;;;;;;23.13;15.38;;;;;;;;;;5060222;28;20210;-58
2022/03/20 08:54:55;;;;;;;22.05;15.50;;;;;;;;;;5060533;28;20508;-58
2022/03/20 08:57:20;;;;;;;26.05;15.85;;;;;;;;;;5059653;28;20613;-59
2022/03/20 08:59:46;;;;;;;23.75;14.95;;;;;;;;;;5061998;28;20219;-62
2022/03/20 09:02:11;;;;;;;23.10;15.90;;;;;;;;;;5057721;28;20557;-60
2022/03/20 09:04:36;;;;;;;24.48;16.73;;;;;;;;;;5050092;28;20361;-61
2022/03/20 09:07:02;;;;;;;23.23;15.85;;;;;;;;;;5064727;28;20256;-61
2022/03/20 09:09:27;;;;;;;31.55;18.33;;;;;;;;;;5068687;28;20210;-61
2022/03/20 09:11:52;;;;;;;25.52;17.88;;;;;;;;;;5068059;28;20571;-61
2022/03/20 09:14:17;;;;;;;29.38;18.08;;;;;;;;;;5066562;28;20222;-61
2022/03/20 09:19:27;;;;;;;28.20;18.48;;;;;;;;;;5068668;28;20271;-60
2022/03/20 09:21:52;;;;;;;24.92;16.08;;;;;;;;;;5066318;28;20215;-60
2022/03/20 09:24:18;;;;;;;25.05;16.38;;;;;;;;;;5061216;28;20782;-61
2022/03/20 09:26:43;;;;;;;26.05;16.77;;;;;;;;;;5050190;28;20215;-61
2022/03/20 09:29:08;;;;;;;26.30;17.60;;;;;;;;;;5059453;28;20210;-60
2022/03/20 09:31:34;;;;;;;27.08;16.80;;;;;;;;;;5051665;28;20215;-61
2022/03/20 09:34:01;;;;;;;25.95;16.98;;;;;;;;;;5070110;28;20226;-62
2022/03/20 09:36:26;;;;;;;27.80;17.25;;;;;;;;;;5069707;28;20214;-60
2022/03/20 09:38:52;;;;;;;23.25;16.73;;;;;;;;;;5050148;28;20272;-58
2022/03/20 09:41:17;;;;;;;24.75;16.35;;;;;;;;;;5069553;28;20218;-58
2022/03/20 09:43:43;;;;;;;27.60;17.48;;;;;;;;;;5069909;28;20221;-58
2022/03/20 09:46:08;;;;;;;29.58;18.13;;;;;;;;;;5068538;28;20697;-58
2022/03/20 09:48:34;;;;;;;26.00;17.58;;;;;;;;;;5070255;28;20721;-59
2022/03/20 09:51:00;;;;;;;24.98;17.23;;;;;;;;;;5069963;28;20214;-58
2022/03/20 09:53:25;;;;;;;25.92;17.48;;;;;;;;;;5068115;28;20309;-59
2022/03/20 09:55:51;;;;;;;25.17;17.40;;;;;;;;;;5065267;28;20236;-58
2022/03/20 09:58:16;;;;;;;25.45;17.52;;;;;;;;;;5055078;28;20207;-59
2022/03/20 10:00:41;;;;;;;25.55;18.50;;;;;;;;;;5067160;28;20264;-59
2022/03/20 10:03:13;;;;;;;45.90;32.80;;;;;;;;;;5051498;28;20248;-59
2022/03/20 10:05:38;;;;;;;27.70;17.50;;;;;;;;;;5051585;28;20226;-62
2022/03/20 10:08:16;;;;;;;26.38;18.75;;;;;;;;;;5050595;28;20293;-59
2022/03/20 10:10:42;;;;;;;25.63;18.17;;;;;;;;;;5070006;28;20557;-58
2022/03/20 10:13:10;;;;;;;25.90;18.33;;;;;;;;;;5057341;28;20670;-59
2022/03/20 10:15:36;;;;;;;27.15;18.15;;;;;;;;;;5032048;28;20203;-59
2022/03/20 10:18:09;;;;;;;26.08;18.55;;;;;;;;;;5049509;28;20200;-78
2022/03/20 10:20:42;;;;;;;25.02;17.17;;;;;;;;;;5049432;28;20219;-71
2022/03/20 10:23:26;;;;;;;27.05;19.73;;;;;;;;;;5067523;28;20206;-76
2022/03/20 10:25:51;;;;;;;28.92;18.42;;;;;;;;;;5069678;28;20649;-76
2022/03/20 10:28:16;;;;;;;25.95;18.33;;;;;;;;;;5068568;28;20238;-76
2022/03/20 10:30:42;;;;;;;26.52;18.77;;;;;;;;;;5069102;28;20210;-76
2022/03/20 10:33:13;;;;;;;26.42;18.40;;;;;;;;;;5046783;28;20268;-74
2022/03/20 10:35:39;;;;;;;26.80;18.80;;;;;;;;;;5065784;28;20678;-70
2022/03/20 10:38:04;;;;;;;28.95;18.98;;;;;;;;;;5059143;28;20225;-70
2022/03/20 10:40:29;;;;;;;24.35;18.15;;;;;;;;;;5049594;28;20214;-75
2022/03/20 10:43:07;;;;;;;29.17;20.20;;;;;;;;;;5062945;28;20625;-71
2022/03/20 10:45:47;;;;;;;28.00;19.48;;;;;;;;;;5068820;28;20226;-70
2022/03/20 10:48:13;;;;;;;28.50;20.33;;;;;;;;;;5063964;28;20616;-73
2022/03/20 10:50:45;;;;;;;28.60;19.55;;;;;;;;;;5050223;28;20239;-73
2022/03/20 10:53:10;;;;;;;26.75;19.45;;;;;;;;;;5050945;28;20645;-72
2022/03/20 10:55:35;;;;;;;28.05;19.85;;;;;;;;;;5064778;28;20228;-73
2022/03/20 10:58:17;;;;;;;29.67;20.50;;;;;;;;;;5064234;28;20222;-69
2022/03/20 11:00:45;;;;;;;34.40;24.50;;;;;;;;;;5051409;28;20245;-73
2022/03/20 11:03:10;;;;;;;28.95;20.17;;;;;;;;;;5069726;28;20222;-73
2022/03/20 11:05:37;;;;;;;28.50;20.60;;;;;;;;;;5055223;28;20229;-73
2022/03/20 11:08:02;;;;;;;31.48;20.25;;;;;;;;;;5038317;28;20555;-71
2022/03/20 11:10:27;;;;;;;26.23;19.25;;;;;;;;;;5072693;28;20278;-73
2022/03/20 11:12:54;;;;;;;27.95;20.13;;;;;;;;;;5045074;28;20211;-74
2022/03/20 11:15:20;;;;;;;28.00;20.23;;;;;;;;;;5035011;28;20704;-71
2022/03/20 11:17:45;;;;;;;29.10;20.05;;;;;;;;;;5034252;28;20215;-73
2022/03/20 11:20:11;;;;;;;28.45;20.50;;;;;;;;;;5035003;28;20211;-71
2022/03/20 11:22:37;;;;;;;28.83;20.52;;;;;;;;;;5052903;28;20207;-72
2022/03/20 11:25:03;;;;;;;30.27;20.52;;;;;;;;;;5051813;28;20223;-70
2022/03/20 11:27:28;;;;;;;28.60;20.58;;;;;;;;;;5053274;28;20499;-71
2022/03/20 11:29:56;;;;;;;29.10;19.63;;;;;;;;;;5053033;28;20211;-69
2022/03/20 11:32:21;;;;;;;27.23;20.25;;;;;;;;;;5051299;28;20257;-58
2022/03/20 11:34:47;;;;;;;31.83;20.60;;;;;;;;;;5035152;28;20215;-58
2022/03/20 11:37:13;;;;;;;29.02;21.02;;;;;;;;;;5034148;28;20235;-58
2022/03/20 11:39:39;;;;;;;29.63;20.50;;;;;;;;;;5051785;28;20265;-58
2022/03/20 11:42:22;;;;;;;28.92;20.38;;;;;;;;;;5052208;28;20211;-58
2022/03/20 11:45:07;;;;;;;28.58;20.60;;;;;;;;;;5057794;28;20283;-58
2022/03/20 11:47:35;;;;;;;27.35;20.25;;;;;;;;;;5068775;28;20678;-57
2022/03/20 11:50:19;;;;;;;29.55;20.58;;;;;;;;;;5062268;28;20203;-58
2022/03/20 11:52:55;;;;;;;30.20;21.42;;;;;;;;;;5063887;28;20217;-58
2022/03/20 11:55:24;;;;;;;29.85;20.92;;;;;;;;;;5068331;28;20233;-58
2022/03/20 11:57:49;;;;;;;31.00;20.55;;;;;;;;;;5072654;28;20210;-58
2022/03/20 12:00:18;;;;;;;28.45;20.30;;;;;;;;;;5056455;28;20568;-58
2022/03/20 12:02:56;;;;;;;28.95;20.65;;;;;;;;;;5051880;28;20237;-58
2022/03/20 12:05:26;;;;;;;29.65;20.88;;;;;;;;;;5034138;28;20582;-58
2022/03/20 12:07:54;;;;;;;31.05;22.35;;;;;;;;;;5033903;28;20318;-58
2022/03/20 12:10:33;;;;;;;30.85;20.95;;;;;;;;;;5051753;28;20306;-58
2022/03/20 12:13:17;;;;;;;30.52;20.63;;;;;;;;;;5056929;28;20578;-58
2022/03/20 12:15:42;;;;;;;30.30;21.10;;;;;;;;;;5070976;28;20217;-59
2022/03/20 12:18:10;;;;;;;30.40;21.80;;;;;;;;;;5071594;28;20502;-59
2022/03/20 12:20:48;;;;;;;30.67;20.40;;;;;;;;;;5071405;28;20233;-59
2022/03/20 12:23:32;;;;;;;27.50;20.45;;;;;;;;;;5071437;28;20207;-59
2022/03/20 12:25:57;;;;;;;30.52;20.30;;;;;;;;;;5071876;28;20246;-59
2022/03/20 12:28:29;;;;;;;28.27;20.67;;;;;;;;;;5070616;28;20260;-59
2022/03/20 12:30:54;;;;;;;30.10;21.65;;;;;;;;;;5053956;28;20226;-59
2022/03/20 12:33:21;;;;;;;31.77;22.35;;;;;;;;;;5071555;28;21325;-59
2022/03/20 12:35:47;;;;;;;36.58;22.25;;;;;;;;;;5071106;28;20235;-59
2022/03/20 12:38:31;;;;;;;31.98;21.90;;;;;;;;;;5071464;28;20210;-59
2022/03/20 12:40:57;;;;;;;27.08;20.30;;;;;;;;;;5070940;28;20226;-58
2022/03/20 12:43:22;;;;;;;30.52;21.70;;;;;;;;;;5050404;28;20255;-59
2022/03/20 12:45:48;;;;;;;29.08;21.02;;;;;;;;;;5053324;28;20578;-59
2022/03/20 12:48:20;;;;;;;30.73;22.65;;;;;;;;;;5050208;28;20581;-59
2022/03/20 12:50:47;;;;;;;30.75;21.73;;;;;;;;;;5051452;28;20219;-59
2022/03/20 12:53:14;;;;;;;29.52;21.83;;;;;;;;;;5050089;28;20629;-59
2022/03/20 12:55:40;;;;;;;31.63;22.08;;;;;;;;;;5032711;28;20222;-58
2022/03/20 12:58:07;;;;;;;29.00;21.52;;;;;;;;;;5050610;28;20207;-59
2022/03/20 13:00:33;;;;;;;32.80;22.77;;;;;;;;;;5068382;28;20427;-59
2022/03/20 13:02:58;;;;;;;30.40;22.23;;;;;;;;;;5070730;28;20686;-59
2022/03/20 13:05:24;;;;;;;30.85;21.75;;;;;;;;;;5070375;28;20233;-58
2022/03/20 13:07:50;;;;;;;28.77;21.48;;;;;;;;;;5071043;28;20214;-58
2022/03/20 13:10:16;;;;;;;28.95;21.00;;;;;;;;;;5059335;28;20210;-59
2022/03/20 13:12:48;;;;;;;30.88;22.30;;;;;;;;;;5060663;28;20213;-59
2022/03/20 13:15:20;;;;;;;32.28;22.45;;;;;;;;;;5068716;28;20222;-59
2022/03/20 13:17:46;;;;;;;32.80;21.80;;;;;;;;;;5070019;28;20203;-59
2022/03/20 13:20:16;;;;;;;32.15;22.70;;;;;;;;;;5070205;28;20221;-58
2022/03/20 13:22:42;;;;;;;31.45;23.65;;;;;;;;;;5055226;28;20215;-58
2022/03/20 13:25:16;;;;;;;36.65;25.65;;;;;;;;;;5048637;28;20229;-58
2022/03/20 13:27:43;;;;;;;34.55;25.42;;;;;;;;;;5049698;28;20302;-58
2022/03/20 13:30:08;;;;;;;34.35;25.48;;;;;;;;;;5049549;28;20235;-58
2022/03/20 13:32:34;;;;;;;34.50;25.88;;;;;;;;;;5032292;28;20227;-58
2022/03/20 13:34:59;;;;;;;35.40;25.90;;;;;;;;;;5050544;28;20225;-58
2022/03/20 13:37:24;;;;;;;37.25;26.52;;;;;;;;;;5029404;28;20211;-58
2022/03/20 13:39:54;;;;;;;36.67;27.48;;;;;;;;;;5049989;28;20219;-58
2022/03/20 13:42:20;;;;;;;38.67;27.13;;;;;;;;;;5049504;28;20239;-58
2022/03/20 13:44:47;;;;;;;35.67;26.73;;;;;;;;;;5036157;28;20628;-58
2022/03/20 13:47:12;;;;;;;36.70;27.17;;;;;;;;;;5068900;28;20238;-58
2022/03/20 13:49:37;;;;;;;36.88;27.38;;;;;;;;;;5069352;28;20245;-58
2022/03/20 13:52:03;;;;;;;36.95;26.95;;;;;;;;;;5044632;28;20219;-58
2022/03/20 13:54:29;;;;;;;37.60;27.70;;;;;;;;;;5049209;28;20234;-58
2022/03/20 13:57:05;;;;;;;37.50;28.40;;;;;;;;;;5049239;28;20215;-58
2022/03/20 13:59:32;;;;;;;38.92;27.52;;;;;;;;;;5056732;28;20297;-58
2022/03/20 14:01:58;;;;;;;36.88;28.50;;;;;;;;;;5069264;28;20215;-58
2022/03/20 14:04:24;;;;;;;38.72;29.25;;;;;;;;;;5068774;28;20276;-58
2022/03/20 14:06:54;;;;;;;41.33;29.95;;;;;;;;;;5068539;28;20214;-58
2022/03/20 14:09:29;;;;;;;38.17;28.92;;;;;;;;;;5068656;28;20272;-58
2022/03/20 14:11:54;;;;;;;38.10;29.65;;;;;;;;;;5066567;28;20717;-58
2022/03/20 14:14:20;;;;;;;39.60;28.48;;;;;;;;;;5029989;28;20360;-58
2022/03/20 14:17:02;;;;;;;41.08;30.17;;;;;;;;;;5030827;28;20211;-58
2022/03/20 14:19:28;;;;;;;38.90;29.67;;;;;;;;;;5048361;28;20234;-58
2022/03/20 14:21:54;;;;;;;41.88;30.90;;;;;;;;;;5047836;28;20242;-58
2022/03/20 14:24:19;;;;;;;40.67;30.58;;;;;;;;;;5048193;28;20276;-58
2022/03/20 14:26:45;;;;;;;40.13;30.02;;;;;;;;;;5047915;28;20219;-58
2022/03/20 14:29:13;;;;;;;40.13;30.98;;;;;;;;;;5048080;28;20558;-58
2022/03/20 14:40:03;;;;;;;39.92;30.13;;;;;;;;;;5049193;28;20650;-58
2022/03/20 14:42:29;;;;;;;41.67;30.08;;;;;;;;;;5048153;28;20674;-58
2022/03/20 14:44:55;;;;;;;40.90;30.15;;;;;;;;;;5049118;28;20237;-58
2022/03/20 14:47:20;;;;;;;41.22;30.73;;;;;;;;;;5048861;28;20233;-58
2022/03/20 14:49:46;;;;;;;39.97;30.73;;;;;;;;;;5048400;28;20210;-58
2022/03/20 14:52:15;;;;;;;41.58;30.60;;;;;;;;;;5049167;28;20248;-58
2022/03/20 14:54:41;;;;;;;41.25;31.17;;;;;;;;;;5047918;28;20326;-58
2022/03/20 14:57:06;;;;;;;40.00;31.40;;;;;;;;;;5047914;28;20290;-58
2022/03/20 14:59:33;;;;;;;42.13;29.95;;;;;;;;;;5057815;28;20214;-58